Nearby METAR Reports

METAR is the scheduled surface weather observation taken hourly at civil and military airport locations.

METAR is an acronym from the French language and roughly translates as Aviation Routine Weather Report.

 

EGPL - Benbecula Island, United Kingdom
Distance from station: WNW 41mi, 66km
Updated: 08/05/2021 20:20
Overcast
Overcast
 Wind from ESE
Wind: ESE 9 mph , 15 km/h
Temperature: 7°C
Wind Chill: 4°C
Dew Point: 6°C
Humidity: 93%
Barometer: 990 hPa
Clouds: Overcast
Visibility: 6 miles , 10 km
Cloud details: Mostly cloudy 91 m
Mostly cloudy 213 m
Overcast 427 m
2021/05/08 19:20 EGPL 081920Z AUTO 12008KT 9999 BKN003/// BKN007/// OVC014/// 07/06 Q0990
EGPU - Tiree Island, United Kingdom
Distance from station: SSW 56mi, 90km
Updated: 08/05/2021 20:20
Mostly cloudy
Mostly cloudy
 Wind from SE
Wind: SE 18 mph , 30 km/h
Temperature: 8°C
Wind Chill: 4°C
Dew Point: 7°C
Humidity: 93%
Barometer: 989 hPa
Clouds: Mostly cloudy
Visibility: 6 miles , 10 km
Cloud details: Mostly cloudy 732 m
2021/05/08 19:20 EGPU 081920Z AUTO 13016KT 9999 BKN024/// 08/07 Q0989
 
EGEO - Oban Airport, United Kingdom
Distance from station: SE 65mi, 105km
Updated: 08/05/2021 16:50
NOT Current
Light rain, Showers, Overcast
Light rain, Showers, Overcast
 Wind from ESE
Wind: ESE 16 mph , 26 km/h
Temperature: 8°C
Wind Chill: 4°C
Dew Point: 3°C
Humidity: 71%
Barometer: 992 hPa
Summary: Light rain, Showers
Clouds: Overcast
Visibility: 6 miles , 10 km
Cloud details: Overcast 1006 m
2021/05/08 15:50 EGEO 081550Z 12014KT 9999 -SHRA OVC033 08/03 Q0992
EGPO - Stornoway, United Kingdom
Distance from station: 0 66mi, 106km
Updated: 08/05/2021 20:20
Overcast
Overcast
 Wind from E
Wind: E 13 mph , 20 km/h
Temperature: 7°C
Wind Chill: 4°C
Dew Point: 4°C
Humidity: 81%
Barometer: 992 hPa
Clouds: Overcast
Visibility: 6 miles , 10 km
Cloud details: Mostly cloudy 945 m
Overcast 1311 m
2021/05/08 19:20 EGPO 081920Z AUTO 09011KT 9999 BKN031/// OVC043/// 07/04 Q0992
 
EGPE - Inverness/Dalcro, United Kingdom
Distance from station: ENE 88mi, 141km
Updated: 08/05/2021 20:20
Overcast
Overcast
 Wind from NNE
Wind: NNE 7 mph , 11 km/h
Temperature: 7°C
Wind Chill: 5°C
Dew Point: 4°C
Humidity: 81%
Barometer: 993 hPa
Clouds: Overcast
Visibility: 6 miles , 10 km
Cloud details: Partly cloudy 640 m
Overcast 1067 m
2021/05/08 19:20 EGPE 081920Z AUTO 03006KT 9999 SCT021/// OVC035/// 07/04 Q0993
EGQA - Tain Range (saws, United Kingdom
Distance from station: ENE 97mi, 156km
Updated: 07/05/2021 12:50
NOT Current
Partly cloudy
Partly cloudy
 Wind from W
Wind: W 15 mph , 24 km/h
Clouds: Partly cloudy
Visibility: 6 miles , 10 km
Cloud details: Few Clouds 335 m
Partly cloudy 762 m
2021/05/07 11:50 EGQA 071150Z 27013KT 9999 FEW011 SCT025 09/// Q1013 RMK BLU
 
EGQK - Kinloss Raf, United Kingdom
Distance from station: ENE 107mi, 171km
Updated: 08/05/2021 19:50
Partly cloudy
Partly cloudy
 Wind from E
Wind: E 14 mph , 22 km/h
Temperature: 6°C
Wind Chill: 2°C
Dew Point: 5°C
Humidity: 93%
Barometer: 993 hPa
Clouds: Partly cloudy
Visibility: 6 miles , 10 km
Cloud details: Mostly cloudy 549 m
Partly cloudy 1524 m
2021/05/08 18:50 EGQK 081850Z AUTO 09012KT 9999 BKN018/// SCT050/// 06/05 Q0993 RERA
EGPI - Islay/Port Ellen, United Kingdom
Distance from station: S 110mi, 177km
Updated: 08/05/2021 20:20
Partly cloudy
Partly cloudy
 Wind from ESE
Wind: ESE 18 mph , 30 km/h
Temperature: 10°C
Wind Chill: 7°C
Dew Point: 8°C
Humidity: 88%
Barometer: 990 hPa
Clouds: Partly cloudy
Visibility: 6 miles , 10 km
Cloud details: Partly cloudy 1372 m
2021/05/08 19:20 EGPI 081920Z AUTO 11016KT 230V020 9999 SCT045/// 10/08 Q0990
 
EGQS - Lossiemouth Raf, United Kingdom
Distance from station: ENE 117mi, 188km
Updated: 08/05/2021 19:50
Light rain, Mostly cloudy
Light rain, Mostly cloudy
 Wind from E
Wind: E 15 mph , 24 km/h
Temperature: 6°C
Wind Chill: 2°C
Dew Point: 5°C
Humidity: 93%
Barometer: 994 hPa
Summary: Light rain
Clouds: Mostly cloudy
Visibility: 6 miles , 10 km
Cloud details: Partly cloudy 427 m
Mostly cloudy 488 m
2021/05/08 18:50 EGQS 081850Z 10013KT 9999 -RA SCT014 BKN016 06/05 Q0994 RMK GRN
EGPF - Glasgow Airport, United Kingdom
Distance from station: SE 121mi, 195km
Updated: 08/05/2021 20:20
Mostly cloudy
Mostly cloudy
 Wind from ENE
Wind: ENE 3 mph , 6 km/h
Temperature: 8°C
Dew Point: 7°C
Humidity: 93%
Barometer: 993 hPa
Clouds: Mostly cloudy
Visibility: 6 miles , 10 km
Cloud details: Mostly cloudy 457 m
2021/05/08 19:20 EGPF 081920Z AUTO 06003KT 9999 BKN015 08/07 Q0993
 
EGEC - Campbeltown, United Kingdom
Distance from station: SSE 129mi, 207km
Updated: 08/05/2021 18:20
NOT Current
Few Clouds
Few Clouds
 Wind from ESE
Wind: ESE 16 mph , 26 km/h
Temperature: 10°C
Wind Chill: 7°C
Dew Point: 8°C
Humidity: 88%
Barometer: 991 hPa
Clouds: Few Clouds
Visibility: 6 miles , 10 km
Cloud details: Few Clouds 366 m
2021/05/08 17:20 EGEC 081720Z 11014KT 9999 FEW012 10/08 Q0991
EGPN - Dundee/Riverside, United Kingdom
Distance from station: ESE 137mi, 221km
Updated: 08/05/2021 15:50
NOT Current
Rain, Mostly cloudy
Rain, Mostly cloudy
 Wind from E
Wind: E 16 mph , 26 km/h
Temperature: 7°C
Wind Chill: 3°C
Dew Point: 6°C
Humidity: 93%
Barometer: 996 hPa
Summary: Rain
Clouds: Mostly cloudy
Visibility: 3 miles , 5 km
Cloud details: Mostly cloudy 274 m
2021/05/08 14:50 EGPN 081450Z 10014KT 5000 RA BKN009 07/06 Q0996
 
EGPK - Prestwick(Civ/Na, United Kingdom
Distance from station: SSE 139mi, 224km
Updated: 08/05/2021 20:20
Mostly cloudy
Mostly cloudy
 Wind from NE
Wind: NE 5 mph , 7 km/h
Temperature: 11°C
Dew Point: 8°C
Humidity: 82%
Barometer: 991 hPa
Clouds: Mostly cloudy
Visibility: 6 miles , 10 km
Cloud details: Partly cloudy 975 m
Mostly cloudy 1189 m
Mostly cloudy 1433 m
2021/05/08 19:20 EGPK 081920Z 04004KT 9999 SCT032 BKN039 BKN047 11/08 Q0991
EGQL - Leuchars Raf, United Kingdom
Distance from station: ESE 145mi, 233km
Updated: 08/05/2021 19:50
Mostly cloudy
Mostly cloudy
 Wind from S
Wind: S 3 mph , 6 km/h
Temperature: 8°C
Dew Point: 8°C
Humidity: 100%
Barometer: 992 hPa
Clouds: Mostly cloudy
Visibility: 6 miles , 10 km
Cloud details: Partly cloudy 792 m
Mostly cloudy 1372 m
2021/05/08 18:50 EGQL 081850Z 19003KT 9999 SCT026 BKN045 08/08 Q0992 RMK BLU
 
EGPH - Edinburgh Airpor, United Kingdom
Distance from station: SE 145mi, 234km
Updated: 08/05/2021 20:20
Overcast
Overcast
 Wind from NE
Wind: NE 1 mph , 2 km/h
Temperature: 8°C
Dew Point: 7°C
Humidity: 93%
Barometer: 992 hPa
Clouds: Overcast
Visibility: 6 miles , 10 km
Cloud details: Mostly cloudy 305 m
Overcast 701 m
2021/05/08 19:20 EGPH 081920Z 05001KT 9999 BKN010 OVC023 08/07 Q0992
EGPC - Wick, United Kingdom
Distance from station: NE 146mi, 234km
Updated: 08/05/2021 20:20
Light rain, Mostly cloudy
Light rain, Mostly cloudy
 Wind from ESE
Wind: ESE 26 mph , 43 km/h
Temperature: 6°C
Wind Chill: 1°C
Dew Point: 5°C
Humidity: 93%
Barometer: 995 hPa
Summary: Light rain
Clouds: Mostly cloudy
Visibility: 5 miles , 8 km
Cloud details: Partly cloudy 274 m
Mostly cloudy 366 m
Mostly cloudy 518 m
2021/05/08 19:20 EGPC 081920Z AUTO 11023KT 8000 -RA SCT009/// BKN012/// BKN017/// 06/05 Q0995

-

free counters
QR Code Twitter Scottish Weather Network UK Weather Network
Argyll House B & B

Argyll House B & B is situated in North West Skye and is the perfect base to see all that the Isle of Skye has to offer. Bookings are been taken for 2021 and 2022